createdAt,value
2017-12-05T00:03:37.911Z,103100.00
2017-12-05T00:05:50.979Z,103095.74
2017-12-05T00:07:55.945Z,103109.94
2017-12-05T00:10:04.272Z,103093.61
2017-12-05T00:12:16.239Z,103092.34
2017-12-05T00:14:18.516Z,103092.34
2017-12-05T00:16:20.709Z,103082.54
2017-12-05T00:18:23.193Z,103074.37
2017-12-05T00:20:35.198Z,103084.67
2017-12-05T00:22:38.052Z,103073.09
2017-12-05T00:24:43.382Z,103079.50
2017-12-05T00:26:46.438Z,103071.83
2017-12-05T00:28:49.440Z,103076.12
2017-12-05T00:30:52.214Z,103076.55
2017-12-05T00:33:06.010Z,103073.99
2017-12-05T00:35:07.661Z,103069.27
2017-12-05T00:37:19.248Z,103068.85
2017-12-05T00:39:22.208Z,103069.28
2017-12-05T00:41:34.825Z,103062.02
2017-12-05T00:43:41.227Z,103062.00
2017-12-05T00:45:43.264Z,103060.72
2017-12-05T00:47:45.268Z,103060.77
2017-12-05T00:49:52.389Z,103059.45
2017-12-05T00:51:55.195Z,103056.91
2017-12-05T00:54:02.235Z,103061.64
2017-12-05T00:56:04.239Z,103059.48
2017-12-05T00:58:07.686Z,103065.53
2017-12-05T01:00:14.391Z,103070.24
2017-12-05T01:02:17.770Z,103074.53
2017-12-05T01:04:19.383Z,103064.26
2017-12-05T01:06:21.243Z,103066.85
2017-12-05T01:08:23.240Z,103068.16
2017-12-05T01:10:26.596Z,103066.47
2017-12-05T01:12:30.019Z,103061.38
2017-12-05T01:14:38.201Z,103065.62
2017-12-05T01:16:42.213Z,103064.31
2017-12-05T01:18:45.082Z,103069.48
2017-12-05T01:20:47.984Z,103075.92
2017-12-05T01:22:49.765Z,103070.77
2017-12-05T01:24:51.355Z,103069.50
2017-12-05T01:26:53.241Z,103069.50
2017-12-05T01:28:56.227Z,103070.38
2017-12-05T01:31:01.096Z,103066.94
2017-12-05T01:33:05.782Z,103067.41
2017-12-05T01:37:38.733Z,103072.57
2017-12-05T01:39:46.724Z,103085.44
2017-12-05T01:41:51.970Z,103079.42
2017-12-05T01:43:54.743Z,103090.61
2017-12-05T01:45:56.729Z,103090.61
2017-12-05T01:48:01.774Z,103089.34
2017-12-05T01:50:13.170Z,103074.33
2017-12-05T01:52:16.096Z,103080.32
2017-12-05T01:54:19.835Z,103079.03
2017-12-05T01:56:23.800Z,103071.77
2017-12-05T01:58:26.693Z,103054.67
2017-12-05T02:00:32.427Z,103067.48
2017-12-05T02:02:40.857Z,103066.66
2017-12-05T02:04:45.203Z,103074.80
2017-12-05T02:06:49.781Z,103071.79
2017-12-05T02:08:53.688Z,103077.39
2017-12-05T02:10:57.388Z,103075.23
2017-12-05T02:13:00.583Z,103070.98
2017-12-05T02:15:08.795Z,103073.97
2017-12-05T02:17:17.519Z,103066.28
2017-12-05T02:19:20.789Z,103066.31
2017-12-05T02:21:30.814Z,103064.57
2017-12-05T02:23:33.839Z,103066.71
2017-12-05T02:25:45.853Z,103058.58
2017-12-05T02:27:48.727Z,103065.90
2017-12-05T02:30:00.829Z,103064.61
2017-12-05T02:32:03.824Z,103057.75
2017-12-05T02:34:06.720Z,103056.50
2017-12-05T02:36:12.364Z,103062.03
2017-12-05T02:38:20.942Z,103051.78
2017-12-05T02:40:35.946Z,103057.34
2017-12-05T02:42:38.799Z,103066.34
2017-12-05T02:44:51.723Z,103059.93
2017-12-05T02:46:53.693Z,103061.22
2017-12-05T02:48:56.465Z,103059.49
2017-12-05T02:51:04.055Z,103059.52
2017-12-05T02:53:06.847Z,103052.65
2017-12-05T02:55:10.374Z,103058.67
2017-12-05T02:57:13.407Z,103062.09
2017-12-05T02:59:17.039Z,103060.41
2017-12-05T03:01:20.758Z,103066.41
2017-12-05T03:03:22.812Z,103060.83
2017-12-05T03:05:25.901Z,103061.28
2017-12-05T03:07:30.247Z,103063.86
2017-12-05T03:09:32.909Z,103051.84
2017-12-05T03:11:34.944Z,103047.14
2017-12-05T03:13:37.691Z,103047.16
2017-12-05T03:15:47.503Z,103049.31
2017-12-05T03:17:49.953Z,103052.30
2017-12-05T03:19:54.878Z,103056.16
2017-12-05T03:21:56.802Z,103050.18
2017-12-05T03:24:08.929Z,103056.19
2017-12-05T03:26:13.570Z,103051.89
2017-12-05T03:28:26.888Z,103051.89
2017-12-05T03:30:32.420Z,103060.89
2017-12-05T03:32:44.255Z,103046.77
2017-12-05T03:34:49.109Z,103044.19
2017-12-05T03:36:51.247Z,103048.06
2017-12-05T03:39:03.256Z,103043.80
2017-12-05T03:41:06.020Z,103048.52
2017-12-05T03:43:09.040Z,103048.50
2017-12-05T03:45:13.293Z,103048.96
2017-12-05T03:47:15.235Z,103051.10
2017-12-05T03:49:17.680Z,103035.23
2017-12-05T03:51:19.315Z,103036.95
2017-12-05T03:53:21.197Z,103036.55
2017-12-05T03:55:30.199Z,103034.39
2017-12-05T03:59:54.989Z,103024.55
2017-12-05T04:02:07.823Z,103028.83
2017-12-05T04:04:15.238Z,103029.71
2017-12-05T04:06:20.838Z,103035.72
2017-12-05T04:08:29.323Z,103028.42
2017-12-05T04:10:41.273Z,103037.00
2017-12-05T04:12:53.286Z,103032.70
2017-12-05T04:15:05.399Z,103037.87
2017-12-05T04:17:07.724Z,103035.32
2017-12-05T04:19:12.448Z,103043.03
2017-12-05T04:21:16.055Z,103039.17
2017-12-05T04:23:18.720Z,103042.16
2017-12-05T04:25:30.373Z,103046.48
2017-12-05T04:27:32.307Z,103042.62
2017-12-05T04:29:35.246Z,103048.20
2017-12-05T04:31:47.211Z,103044.77
2017-12-05T04:33:52.280Z,103047.77
2017-12-05T04:35:54.274Z,103045.22
2017-12-05T04:37:57.261Z,103049.50
2017-12-05T04:39:59.708Z,103043.52
2017-12-05T04:42:02.260Z,103043.94
2017-12-05T04:44:04.220Z,103038.38
2017-12-05T04:46:06.249Z,103039.69
2017-12-05T04:48:10.308Z,103034.94
2017-12-05T04:50:13.255Z,103029.39
2017-12-05T04:52:17.229Z,103030.67
2017-12-05T04:54:20.224Z,103031.53
2017-12-05T04:56:23.263Z,103029.83
2017-12-05T04:58:28.261Z,103028.11
2017-12-05T05:00:30.260Z,103028.56
2017-12-05T05:02:32.268Z,103029.84
2017-12-05T05:04:40.094Z,103032.84
2017-12-05T05:06:45.220Z,103031.55
2017-12-05T05:08:50.247Z,103028.98
2017-12-05T05:11:02.109Z,103036.30
2017-12-05T05:13:08.007Z,103039.28
2017-12-05T05:15:11.993Z,103041.02
2017-12-05T05:17:14.073Z,103037.16
2017-12-05T05:19:17.651Z,103044.45
2017-12-05T05:21:24.703Z,103045.75
2017-12-05T05:23:31.298Z,103046.61
2017-12-05T05:25:33.737Z,103050.03
2017-12-05T05:27:38.666Z,103053.48
2017-12-05T05:29:41.301Z,103053.48
2017-12-05T05:31:44.342Z,103047.05
2017-12-05T05:33:51.296Z,103052.61
2017-12-05T05:35:53.688Z,103054.35
2017-12-05T05:37:56.294Z,103049.20
2017-12-05T05:39:59.407Z,103056.05
2017-12-05T05:42:11.280Z,103048.36
2017-12-05T05:44:14.652Z,103052.20
2017-12-05T05:46:16.256Z,103044.07
2017-12-05T05:48:19.402Z,103051.36
2017-12-05T05:50:21.301Z,103051.78
2017-12-05T05:52:25.245Z,103056.52
2017-12-05T05:54:28.243Z,103054.38
2017-12-05T05:56:35.491Z,103062.52
2017-12-05T05:58:37.265Z,103066.37
2017-12-05T06:00:39.725Z,103060.81
2017-12-05T06:02:42.272Z,103065.53
2017-12-05T06:04:44.283Z,103065.52
2017-12-05T06:06:47.262Z,103062.53
2017-12-05T06:09:02.360Z,103064.68
2017-12-05T06:11:05.238Z,103065.09
2017-12-05T06:13:12.289Z,103063.80
2017-12-05T06:15:16.313Z,103063.39
2017-12-05T06:17:29.448Z,103065.97
2017-12-05T06:19:31.311Z,103058.25
2017-12-05T06:26:18.418Z,103071.11
2017-12-05T06:28:20.570Z,103067.25
2017-12-05T06:30:24.883Z,103070.68
2017-12-05T06:42:07.046Z,103066.41
2017-12-05T06:44:20.582Z,103068.97
2017-12-05T06:46:25.903Z,103069.40
2017-12-05T06:48:28.541Z,103069.42
2017-12-05T06:50:30.852Z,103077.13
2017-12-05T06:52:34.599Z,103077.98
2017-12-05T06:54:37.242Z,103075.00
2017-12-05T06:56:40.713Z,103074.13
2017-12-05T06:58:44.835Z,103077.98
2017-12-05T07:00:50.771Z,103078.42
2017-12-05T07:02:53.910Z,103077.16
2017-12-05T07:05:06.270Z,103076.28
2017-12-05T07:07:10.542Z,103076.72
2017-12-05T07:09:14.028Z,103082.71
2017-12-05T07:11:30.830Z,103077.56
2017-12-05T07:13:33.744Z,103084.88
2017-12-05T07:15:37.512Z,103083.58
2017-12-05T07:25:39.826Z,103091.75
2017-12-05T07:27:42.680Z,103096.88
2017-12-05T07:29:54.908Z,103089.19
2017-12-05T07:31:59.741Z,103092.18
2017-12-05T07:34:10.605Z,103088.31
2017-12-05T07:36:14.047Z,103087.87
2017-12-05T07:38:16.885Z,103090.05
2017-12-05T07:50:51.834Z,103097.76
2017-12-05T07:52:55.639Z,103108.03
2017-12-05T07:55:08.957Z,103097.33
2017-12-05T07:57:14.608Z,103102.05
2017-12-05T07:59:26.519Z,103103.36
2017-12-05T08:01:38.305Z,103110.63
2017-12-05T08:03:40.303Z,103111.06
2017-12-05T08:05:42.435Z,103108.05
2017-12-05T08:07:49.704Z,103104.63
2017-12-05T08:09:55.061Z,103101.20
2017-12-05T08:11:57.425Z,103105.48
2017-12-05T08:14:01.403Z,103113.63
2017-12-05T08:16:03.831Z,103112.77
2017-12-05T08:18:59.610Z,103113.22
2017-12-05T08:21:02.667Z,103109.78
2017-12-05T08:23:07.445Z,103102.08
2017-12-05T08:25:09.575Z,103108.06
2017-12-05T08:27:13.497Z,103106.36
2017-12-05T08:29:18.974Z,103103.80
2017-12-05T08:39:16.713Z,103110.66
2017-12-05T08:43:29.480Z,103110.63
2017-12-05T08:45:36.685Z,103114.51
2017-12-05T08:47:40.055Z,103116.64
2017-12-05T08:49:43.774Z,103107.22
2017-12-05T08:53:58.079Z,103107.22
2017-12-05T08:56:04.902Z,103117.50
2017-12-05T08:58:11.077Z,103115.35
2017-12-05T09:00:17.089Z,103125.64
2017-12-05T09:02:21.534Z,103123.49
2017-12-05T09:04:26.787Z,103118.78
2017-12-05T09:06:30.866Z,103120.09
2017-12-05T09:08:36.945Z,103129.95
2017-12-05T09:10:41.363Z,103121.37
2017-12-05T09:12:44.676Z,103119.23
2017-12-05T09:14:50.999Z,103119.66
2017-12-05T09:16:54.445Z,103119.66
2017-12-05T09:19:00.449Z,103121.37
2017-12-05T09:21:05.144Z,103125.64
2017-12-05T09:32:53.765Z,103132.94
2017-12-05T09:35:09.312Z,103130.80
2017-12-05T09:37:14.706Z,103129.52
2017-12-05T09:43:22.600Z,103136.81
2017-12-05T09:45:26.554Z,103133.79
2017-12-05T09:47:30.312Z,103133.79
2017-12-05T09:53:55.113Z,103138.95
2017-12-05T10:13:53.820Z,103146.23
2017-12-05T10:15:58.402Z,103147.11
2017-12-05T10:18:03.957Z,103147.53
2017-12-05T10:20:56.326Z,103135.95
2017-12-05T10:31:14.307Z,103127.39
2017-12-05T10:33:19.938Z,103120.96
2017-12-05T10:35:25.893Z,103124.41
2017-12-05T10:37:30.983Z,103129.11
2017-12-05T10:39:43.363Z,103124.41
2017-12-05T10:41:49.620Z,103120.98
2017-12-05T10:43:57.679Z,103119.25
2017-12-05T10:46:02.807Z,103125.25
2017-12-05T10:48:06.421Z,103120.55
2017-12-05T10:50:10.984Z,103117.13
2017-12-05T10:52:30.353Z,103113.27
2017-12-05T10:54:34.438Z,103114.55
2017-12-05T10:58:10.989Z,103119.27
2017-12-05T11:00:14.703Z,103113.70
2017-12-05T11:02:27.756Z,103108.55
2017-12-05T11:04:35.857Z,103115.84
2017-12-05T11:06:39.933Z,103118.83
2017-12-05T11:12:51.635Z,103119.27
2017-12-05T11:25:01.681Z,103122.69
2017-12-05T11:27:04.299Z,103122.23
2017-12-05T11:29:16.084Z,103116.67
2017-12-05T11:31:24.899Z,103120.52
2017-12-05T11:35:39.552Z,103124.81
2017-12-05T11:41:12.988Z,103116.66
2017-12-05T11:43:22.531Z,103111.55
2017-12-05T11:45:25.389Z,103112.82
2017-12-05T11:47:27.886Z,103111.11
2017-12-05T11:51:41.852Z,103108.95
2017-12-05T11:53:52.783Z,103109.38
2017-12-05T11:56:01.182Z,103111.10
2017-12-05T12:04:24.667Z,103105.98
2017-12-05T12:11:10.933Z,103106.84
2017-12-05T12:13:19.581Z,103107.67
2017-12-05T12:15:25.987Z,103106.41
2017-12-05T12:17:49.586Z,103104.27
2017-12-05T12:19:53.595Z,103097.83
2017-12-05T12:24:11.650Z,103096.97
2017-12-05T12:26:18.235Z,103095.28
2017-12-05T12:28:24.817Z,103097.86
2017-12-05T12:39:23.564Z,103096.11
2017-12-05T12:41:28.614Z,103093.13
2017-12-05T12:43:34.142Z,103095.70
2017-12-05T12:45:40.936Z,103100.83
2017-12-05T12:48:01.242Z,103090.56
2017-12-05T12:52:04.470Z,103087.99
2017-12-05T13:02:21.322Z,103083.70
2017-12-05T13:04:23.914Z,103083.70
2017-12-05T13:14:10.758Z,103073.86
2017-12-05T13:16:14.061Z,103071.29
2017-12-05T13:18:17.455Z,103073.41
2017-12-05T13:20:20.940Z,103069.14
2017-12-05T13:22:26.697Z,103058.84
2017-12-05T13:24:30.561Z,103065.27
2017-12-05T13:26:34.455Z,103068.27
2017-12-05T13:28:39.725Z,103072.98
2017-12-05T13:30:42.738Z,103066.98
2017-12-05T13:32:47.215Z,103068.27
2017-12-05T13:34:52.307Z,103064.41
2017-12-05T13:36:55.484Z,103065.28
2017-12-05T13:38:58.739Z,103066.97
2017-12-05T13:41:01.963Z,103066.98
2017-12-05T13:43:04.846Z,103052.85
2017-12-05T13:45:07.941Z,103052.85
2017-12-05T13:47:10.821Z,103057.58
2017-12-05T13:49:13.976Z,103066.09
2017-12-05T13:51:17.008Z,103062.27
2017-12-05T13:53:20.293Z,103051.98
2017-12-05T13:55:24.111Z,103052.41
2017-12-05T13:57:28.025Z,103053.69
2017-12-05T13:59:30.960Z,103050.27
2017-12-05T14:01:34.022Z,103054.98
2017-12-05T14:03:36.851Z,103058.83
2017-12-05T14:05:39.810Z,103049.41
2017-12-05T14:07:42.654Z,103053.26
2017-12-05T14:09:45.839Z,103045.14
2017-12-05T14:11:49.530Z,103044.68
2017-12-05T14:13:52.718Z,103045.14
2017-12-05T14:15:55.935Z,103043.41
2017-12-05T14:17:58.547Z,103042.14
2017-12-05T14:20:02.713Z,103049.39
2017-12-05T14:22:06.105Z,103045.12
2017-12-05T14:24:08.921Z,103055.40
2017-12-05T14:26:11.995Z,103054.55
2017-12-05T14:28:15.095Z,103048.56
2017-12-05T14:30:18.082Z,103048.97
2017-12-05T14:32:21.319Z,103051.98
2017-12-05T14:34:24.556Z,103046.86
2017-12-05T14:36:27.681Z,103048.14
2017-12-05T14:38:30.928Z,103051.15
2017-12-05T14:40:33.495Z,103048.13
2017-12-05T14:42:36.380Z,103052.83
2017-12-05T14:44:39.727Z,103053.69
2017-12-05T14:46:44.354Z,103050.27
2017-12-05T14:48:49.983Z,103044.27
2017-12-05T14:50:52.947Z,103050.69
2017-12-05T14:52:56.028Z,103047.70
2017-12-05T14:54:59.028Z,103049.86
2017-12-05T14:57:02.007Z,103048.98
2017-12-05T14:59:06.011Z,103048.55
2017-12-05T15:01:10.011Z,103051.55
2017-12-05T15:03:12.889Z,103049.00
2017-12-05T15:05:16.026Z,103051.98
2017-12-05T15:07:19.716Z,103045.12
2017-12-05T15:09:22.334Z,103057.98
2017-12-05T15:11:25.461Z,103042.98
2017-12-05T15:13:27.941Z,103046.86
2017-12-05T15:15:30.783Z,103039.56
2017-12-05T15:17:34.398Z,103055.84
2017-12-05T15:19:36.884Z,103048.55
2017-12-05T15:21:39.881Z,103051.13
2017-12-05T15:23:43.061Z,103049.41
2017-12-05T15:25:48.126Z,103044.70
2017-12-05T15:29:27.926Z,103054.13
2017-12-05T15:31:30.951Z,103048.54
2017-12-05T15:33:33.994Z,103043.84
2017-12-05T15:35:36.938Z,103051.56
2017-12-05T15:37:40.026Z,103048.13
2017-12-05T15:39:43.064Z,103042.14
2017-12-05T15:41:45.891Z,103054.13
2017-12-05T15:43:49.471Z,103048.55
2017-12-05T15:45:52.224Z,103048.98
2017-12-05T15:47:55.001Z,103054.13
2017-12-05T15:49:57.995Z,103059.67
2017-12-05T15:52:00.984Z,103054.97
2017-12-05T15:54:04.315Z,103051.54
2017-12-05T15:56:06.948Z,103056.23
2017-12-05T15:58:29.801Z,103052.81
2017-12-05T16:00:31.979Z,103064.81
2017-12-05T16:02:34.561Z,103061.81
2017-12-05T16:04:37.960Z,103069.09
2017-12-05T16:06:41.061Z,103063.95
2017-12-05T16:08:44.060Z,103071.22
2017-12-05T16:10:47.736Z,103059.67
2017-12-05T16:12:53.362Z,103068.67
2017-12-05T16:17:03.449Z,103063.09
2017-12-05T16:19:06.144Z,103060.10
2017-12-05T16:21:08.894Z,103056.65
2017-12-05T16:23:11.586Z,103060.11
2017-12-05T16:25:14.356Z,103054.97
2017-12-05T16:27:16.823Z,103054.11
2017-12-05T16:31:11.763Z,103057.11
2017-12-05T16:33:14.803Z,103060.97
2017-12-05T16:35:17.086Z,103060.09
2017-12-05T16:37:19.871Z,103063.51
2017-12-05T16:39:23.323Z,103064.37
2017-12-05T16:41:25.948Z,103062.23
2017-12-05T16:43:28.930Z,103053.67
2017-12-05T16:45:33.661Z,103060.52
2017-12-05T16:47:36.050Z,103060.09
2017-12-05T16:49:38.796Z,103055.78
2017-12-05T16:51:41.055Z,103058.38
2017-12-05T16:53:43.946Z,103058.80
2017-12-05T16:55:47.859Z,103060.95
2017-12-05T16:57:50.875Z,103076.80
2017-12-05T16:59:53.861Z,103071.23
2017-12-05T17:04:28.024Z,103064.36
2017-12-05T17:06:30.850Z,103074.22
2017-12-05T17:08:32.984Z,103076.36
2017-12-05T17:10:36.810Z,103081.06
2017-12-05T17:12:39.098Z,103081.06
2017-12-05T17:14:41.990Z,103072.08
2017-12-05T17:16:44.682Z,103075.93
2017-12-05T17:19:35.569Z,103074.66
2017-12-05T17:21:38.135Z,103074.23
2017-12-05T17:23:41.031Z,103077.63
2017-12-05T17:25:44.026Z,103078.51
2017-12-05T17:27:46.891Z,103075.09
2017-12-05T17:29:49.932Z,103073.37
2017-12-05T17:31:52.957Z,103074.66
2017-12-05T17:33:55.742Z,103069.95
2017-12-05T17:35:58.418Z,103073.38
2017-12-05T17:38:00.897Z,103069.52
2017-12-05T17:40:03.576Z,103084.08
2017-12-05T17:42:05.945Z,103075.92
2017-12-05T17:44:08.421Z,103069.94
2017-12-05T17:46:11.896Z,103077.63
2017-12-05T17:48:14.358Z,103071.22
2017-12-05T17:50:17.080Z,103077.65
2017-12-05T17:52:19.956Z,103074.63
2017-12-05T17:54:22.434Z,103064.77
2017-12-05T17:56:25.933Z,103069.94
2017-12-05T17:58:28.812Z,103059.22
2017-12-05T18:00:31.082Z,103058.38
2017-12-05T18:02:34.404Z,103058.80
2017-12-05T18:04:37.978Z,103062.22
2017-12-05T18:06:40.551Z,103062.62
2017-12-05T18:08:43.976Z,103063.48
2017-12-05T18:10:46.735Z,103060.92
2017-12-05T18:12:48.994Z,103063.91
2017-12-05T18:14:52.116Z,103071.19
2017-12-05T18:16:56.824Z,103062.64
2017-12-05T18:18:59.074Z,103066.48
2017-12-05T18:21:01.951Z,103063.06
2017-12-05T18:23:04.537Z,103063.48
2017-12-05T18:25:06.908Z,103060.06
2017-12-05T18:27:09.596Z,103060.89
2017-12-05T18:29:12.808Z,103056.18
2017-12-05T18:39:27.906Z,103058.76
2017-12-05T18:43:50.976Z,103055.74
2017-12-05T18:45:52.924Z,103055.34
2017-12-05T18:47:55.734Z,103061.33
2017-12-05T18:49:57.979Z,103061.77
2017-12-05T18:52:00.452Z,103068.59
2017-12-05T18:54:02.830Z,103064.31
2017-12-05T18:56:05.006Z,103063.87
2017-12-05T18:58:08.688Z,103057.91
2017-12-05T19:00:11.339Z,103067.33
2017-12-05T19:02:14.187Z,103065.62
2017-12-05T19:04:16.742Z,103060.45
2017-12-05T19:06:18.773Z,103070.76
2017-12-05T19:12:24.341Z,103062.17
2017-12-05T19:14:26.821Z,103057.92
2017-12-05T19:16:29.511Z,103060.89
2017-12-05T19:18:31.871Z,103068.18
2017-12-05T19:20:34.226Z,103066.47
2017-12-05T19:22:37.760Z,103058.76
2017-12-05T19:24:40.536Z,103062.61
2017-12-05T19:26:42.894Z,103066.46
2017-12-05T19:28:45.884Z,103065.19
2017-12-05T19:30:48.360Z,103054.91
2017-12-05T19:32:50.956Z,103061.77
2017-12-05T19:34:53.814Z,103065.17
2017-12-05T19:36:59.570Z,103066.46
2017-12-05T19:39:02.256Z,103063.45
2017-12-05T19:41:32.578Z,103063.89
2017-12-05T19:43:34.730Z,103063.05
2017-12-05T19:45:37.071Z,103060.47
2017-12-05T19:47:39.689Z,103061.77
2017-12-05T19:49:42.062Z,103057.05
2017-12-05T19:51:44.852Z,103055.34
2017-12-05T19:53:47.828Z,103059.17
2017-12-05T19:55:50.092Z,103063.89
2017-12-05T19:57:52.574Z,103058.74
2017-12-05T19:59:54.916Z,103053.60
2017-12-05T20:01:57.430Z,103055.34
2017-12-05T20:03:59.883Z,103050.19
2017-12-05T20:06:01.944Z,103057.45
2017-12-05T20:08:04.150Z,103056.16
2017-12-05T20:10:06.920Z,103049.75
2017-12-05T20:12:09.485Z,103051.02
2017-12-05T20:14:12.361Z,103047.17
2017-12-05T20:16:14.934Z,103048.46
2017-12-05T20:18:18.841Z,103041.60
2017-12-05T20:20:21.016Z,103040.75
2017-12-05T20:22:24.009Z,103045.45
2017-12-05T20:24:26.981Z,103036.47
2017-12-05T20:26:29.471Z,103032.19
2017-12-05T20:28:31.715Z,103037.75
2017-12-05T20:30:34.511Z,103036.04
2017-12-05T20:32:36.993Z,103040.76
2017-12-05T20:34:39.851Z,103041.59
2017-12-05T20:36:42.009Z,103044.18
2017-12-05T20:38:44.707Z,103048.45
2017-12-05T20:40:46.957Z,103044.14
2017-12-05T20:42:49.726Z,103037.30
2017-12-05T20:44:52.010Z,103042.88
2017-12-05T20:46:54.515Z,103041.16
2017-12-05T20:48:59.807Z,103046.30
2017-12-05T20:51:02.097Z,103045.45
2017-12-05T20:53:04.590Z,103047.58
2017-12-05T20:55:06.797Z,103041.58
2017-12-05T20:57:09.018Z,103049.30
2017-12-05T20:59:11.613Z,103040.30
2017-12-05T21:01:13.836Z,103030.47
2017-12-05T21:03:16.550Z,103045.00
2017-12-05T21:05:18.804Z,103038.16
2017-12-05T21:07:21.711Z,103038.16
2017-12-05T21:09:23.954Z,103042.87
2017-12-05T21:11:26.551Z,103036.03
2017-12-05T21:13:28.901Z,103037.31
2017-12-05T21:15:31.711Z,103031.72
2017-12-05T21:25:59.930Z,103039.01
2017-12-05T21:28:01.879Z,103041.59
2017-12-05T21:30:04.275Z,103035.16
2017-12-05T21:32:07.956Z,103027.45
2017-12-05T21:34:10.822Z,103029.16
2017-12-05T21:36:13.002Z,103025.73
2017-12-05T21:38:15.597Z,103021.87
2017-12-05T21:40:18.263Z,103030.03
2017-12-05T21:42:21.036Z,103017.61
2017-12-05T21:44:23.723Z,103018.03
2017-12-05T21:54:58.909Z,103018.05
2017-12-05T21:59:18.924Z,103009.03
2017-12-05T22:01:21.386Z,103017.63
2017-12-05T22:03:58.060Z,103013.74
2017-12-05T22:06:00.943Z,103028.31
2017-12-05T22:08:02.997Z,103020.17
2017-12-05T22:10:05.392Z,103010.32
2017-12-05T22:12:07.940Z,103014.18
2017-12-05T22:14:10.415Z,103011.59
2017-12-05T22:16:12.888Z,103017.59
2017-12-05T22:18:15.367Z,103004.74
2017-12-05T22:20:17.751Z,103006.05
2017-12-05T22:22:19.876Z,103005.59
2017-12-05T22:24:22.801Z,102998.33
2017-12-05T22:26:25.556Z,103008.19
2017-12-05T22:28:28.020Z,103008.63
2017-12-05T22:30:30.844Z,103008.17
2017-12-05T22:32:33.260Z,103009.44
2017-12-05T22:34:35.850Z,102997.04
2017-12-05T22:36:38.425Z,102998.31
2017-12-05T22:38:40.715Z,102998.31
2017-12-05T22:40:43.676Z,103003.48
2017-12-05T22:42:46.054Z,103011.58
2017-12-05T22:44:48.736Z,103004.75
2017-12-05T22:46:51.397Z,103009.91
2017-12-05T22:48:53.664Z,103003.05
2017-12-05T22:50:55.821Z,103003.48
2017-12-05T22:52:58.000Z,103007.75
2017-12-05T22:55:00.277Z,103006.47
2017-12-05T22:57:03.371Z,103010.30
2017-12-05T22:59:06.020Z,103006.03
2017-12-05T23:01:08.036Z,103006.03
2017-12-05T23:03:10.477Z,103008.59
2017-12-05T23:05:12.937Z,103011.60
2017-12-05T23:07:14.985Z,103012.44
2017-12-05T23:09:17.575Z,103009.00
2017-12-05T23:11:19.931Z,103012.45
2017-12-05T23:13:22.317Z,103019.30
2017-12-05T23:15:24.585Z,103013.70
2017-12-05T23:17:26.944Z,103012.02
2017-12-05T23:21:48.604Z,103011.56
2017-12-05T23:23:50.939Z,103016.72
2017-12-05T23:25:52.788Z,103012.86
2017-12-05T23:27:55.267Z,103009.85
2017-12-05T23:29:57.961Z,103014.59
2017-12-05T23:32:00.518Z,103009.44
2017-12-05T23:34:02.712Z,103009.87
2017-12-05T23:44:26.954Z,103013.75
2017-12-05T23:46:29.405Z,103016.75
2017-12-05T23:48:31.776Z,103009.46
2017-12-05T23:50:33.853Z,103010.72
2017-12-05T23:52:35.994Z,103006.91
2017-12-05T23:54:38.960Z,103008.19
2017-12-05T23:56:41.239Z,103004.31
2017-12-05T23:58:43.935Z,103011.17
